sensor_id;sensor_type;location;lat;lon;timestamp;P1;durP1;ratioP1;P2;durP2;ratioP2
64842;SDS011;51310;52.198;5.422;2024-01-27T00:02:03;20.38;;;2.95;;
64842;SDS011;51310;52.198;5.422;2024-01-27T00:04:29;12.55;;;2.40;;
64842;SDS011;51310;52.198;5.422;2024-01-27T00:06:55;7.68;;;1.73;;
64842;SDS011;51310;52.198;5.422;2024-01-27T00:09:21;9.18;;;1.80;;
64842;SDS011;51310;52.198;5.422;2024-01-27T00:11:47;29.98;;;3.17;;
64842;SDS011;51310;52.198;5.422;2024-01-27T00:14:13;12.52;;;3.17;;
64842;SDS011;51310;52.198;5.422;2024-01-27T00:16:39;14.65;;;3.83;;
64842;SDS011;51310;52.198;5.422;2024-01-27T00:19:05;20.33;;;4.68;;
64842;SDS011;51310;52.198;5.422;2024-01-27T00:21:31;18.27;;;2.72;;
64842;SDS011;51310;52.198;5.422;2024-01-27T00:23:57;12.02;;;3.20;;
64842;SDS011;51310;52.198;5.422;2024-01-27T00:26:26;28.38;;;4.03;;
64842;SDS011;51310;52.198;5.422;2024-01-27T00:28:53;11.13;;;3.03;;
64842;SDS011;51310;52.198;5.422;2024-01-27T00:31:19;11.05;;;2.83;;
64842;SDS011;51310;52.198;5.422;2024-01-27T00:33:44;13.07;;;3.03;;
64842;SDS011;51310;52.198;5.422;2024-01-27T00:36:10;17.50;;;2.63;;
64842;SDS011;51310;52.198;5.422;2024-01-27T00:38:36;18.15;;;2.97;;
64842;SDS011;51310;52.198;5.422;2024-01-27T00:41:04;16.40;;;3.35;;
64842;SDS011;51310;52.198;5.422;2024-01-27T00:43:30;15.50;;;2.67;;
64842;SDS011;51310;52.198;5.422;2024-01-27T00:45:56;8.63;;;2.45;;
64842;SDS011;51310;52.198;5.422;2024-01-27T00:48:22;22.98;;;3.30;;
64842;SDS011;51310;52.198;5.422;2024-01-27T00:50:48;10.82;;;3.03;;
64842;SDS011;51310;52.198;5.422;2024-01-27T00:53:14;6.60;;;2.53;;
64842;SDS011;51310;52.198;5.422;2024-01-27T00:55:40;13.45;;;2.65;;
64842;SDS011;51310;52.198;5.422;2024-01-27T00:58:07;16.25;;;2.67;;
64842;SDS011;51310;52.198;5.422;2024-01-27T01:00:33;14.65;;;3.17;;
64842;SDS011;51310;52.198;5.422;2024-01-27T01:02:59;18.13;;;3.10;;
64842;SDS011;51310;52.198;5.422;2024-01-27T01:05:25;14.60;;;2.67;;
64842;SDS011;51310;52.198;5.422;2024-01-27T01:07:51;13.77;;;2.80;;
64842;SDS011;51310;52.198;5.422;2024-01-27T01:10:17;9.57;;;2.05;;
64842;SDS011;51310;52.198;5.422;2024-01-27T01:12:43;13.30;;;3.38;;
64842;SDS011;51310;52.198;5.422;2024-01-27T01:15:09;21.88;;;2.45;;
64842;SDS011;51310;52.198;5.422;2024-01-27T01:17:35;13.38;;;2.92;;
64842;SDS011;51310;52.198;5.422;2024-01-27T01:20:01;20.10;;;2.25;;
64842;SDS011;51310;52.198;5.422;2024-01-27T01:22:27;6.32;;;2.40;;
64842;SDS011;51310;52.198;5.422;2024-01-27T01:24:53;19.60;;;4.30;;
64842;SDS011;51310;52.198;5.422;2024-01-27T01:27:19;16.08;;;3.58;;
64842;SDS011;51310;52.198;5.422;2024-01-27T01:29:46;15.65;;;2.53;;
64842;SDS011;51310;52.198;5.422;2024-01-27T01:32:12;13.30;;;2.47;;
64842;SDS011;51310;52.198;5.422;2024-01-27T01:34:38;11.80;;;3.33;;
64842;SDS011;51310;52.198;5.422;2024-01-27T01:37:04;12.90;;;2.60;;
64842;SDS011;51310;52.198;5.422;2024-01-27T01:39:30;20.92;;;2.88;;
64842;SDS011;51310;52.198;5.422;2024-01-27T01:41:56;19.42;;;2.72;;
64842;SDS011;51310;52.198;5.422;2024-01-27T01:44:21;20.10;;;3.10;;
64842;SDS011;51310;52.198;5.422;2024-01-27T01:46:49;20.40;;;2.67;;
64842;SDS011;51310;52.198;5.422;2024-01-27T01:49:15;20.13;;;2.72;;
64842;SDS011;51310;52.198;5.422;2024-01-27T01:51:42;17.42;;;2.47;;
64842;SDS011;51310;52.198;5.422;2024-01-27T01:54:07;15.98;;;2.92;;
64842;SDS011;51310;52.198;5.422;2024-01-27T01:56:34;20.55;;;3.83;;
64842;SDS011;51310;52.198;5.422;2024-01-27T01:59:01;19.33;;;3.65;;
64842;SDS011;51310;52.198;5.422;2024-01-27T02:01:27;17.15;;;2.63;;
64842;SDS011;51310;52.198;5.422;2024-01-27T02:03:56;13.15;;;2.78;;
64842;SDS011;51310;52.198;5.422;2024-01-27T02:06:22;18.70;;;2.72;;
64842;SDS011;51310;52.198;5.422;2024-01-27T02:08:49;19.13;;;3.65;;
64842;SDS011;51310;52.198;5.422;2024-01-27T02:11:16;22.85;;;2.55;;
64842;SDS011;51310;52.198;5.422;2024-01-27T02:13:42;13.02;;;2.35;;
64842;SDS011;51310;52.198;5.422;2024-01-27T02:16:09;9.48;;;2.50;;
64842;SDS011;51310;52.198;5.422;2024-01-27T02:18:35;15.55;;;2.10;;
64842;SDS011;51310;52.198;5.422;2024-01-27T02:21:01;17.15;;;3.67;;
64842;SDS011;51310;52.198;5.422;2024-01-27T02:23:27;18.85;;;3.42;;
64842;SDS011;51310;52.198;5.422;2024-01-27T02:25:53;9.68;;;2.50;;
64842;SDS011;51310;52.198;5.422;2024-01-27T02:28:19;22.65;;;3.05;;
64842;SDS011;51310;52.198;5.422;2024-01-27T02:30:45;20.27;;;2.97;;
64842;SDS011;51310;52.198;5.422;2024-01-27T02:33:10;13.10;;;3.03;;
64842;SDS011;51310;52.198;5.422;2024-01-27T02:35:36;12.55;;;2.33;;
64842;SDS011;51310;52.198;5.422;2024-01-27T02:38:02;22.35;;;3.15;;
64842;SDS011;51310;52.198;5.422;2024-01-27T02:40:28;13.50;;;2.65;;
64842;SDS011;51310;52.198;5.422;2024-01-27T02:42:54;15.80;;;1.75;;
64842;SDS011;51310;52.198;5.422;2024-01-27T02:45:20;11.48;;;2.97;;
64842;SDS011;51310;52.198;5.422;2024-01-27T02:47:46;19.52;;;3.50;;
64842;SDS011;51310;52.198;5.422;2024-01-27T02:50:12;23.90;;;4.32;;
64842;SDS011;51310;52.198;5.422;2024-01-27T02:52:38;17.23;;;2.90;;
64842;SDS011;51310;52.198;5.422;2024-01-27T02:55:04;20.08;;;3.25;;
64842;SDS011;51310;52.198;5.422;2024-01-27T02:57:31;18.45;;;2.67;;
64842;SDS011;51310;52.198;5.422;2024-01-27T02:59:57;15.98;;;2.95;;
64842;SDS011;51310;52.198;5.422;2024-01-27T03:02:23;6.20;;;2.13;;
64842;SDS011;51310;52.198;5.422;2024-01-27T03:04:49;11.68;;;1.80;;
64842;SDS011;51310;52.198;5.422;2024-01-27T03:07:15;18.23;;;3.40;;
64842;SDS011;51310;52.198;5.422;2024-01-27T03:09:41;15.77;;;2.22;;
64842;SDS011;51310;52.198;5.422;2024-01-27T03:12:07;9.75;;;2.45;;
64842;SDS011;51310;52.198;5.422;2024-01-27T03:14:33;14.25;;;2.78;;
64842;SDS011;51310;52.198;5.422;2024-01-27T03:16:59;12.27;;;2.55;;
64842;SDS011;51310;52.198;5.422;2024-01-27T03:19:25;10.90;;;2.20;;
64842;SDS011;51310;52.198;5.422;2024-01-27T03:21:51;23.15;;;3.70;;
64842;SDS011;51310;52.198;5.422;2024-01-27T03:24:17;16.25;;;2.65;;
64842;SDS011;51310;52.198;5.422;2024-01-27T03:26:43;14.27;;;2.35;;
64842;SDS011;51310;52.198;5.422;2024-01-27T03:29:09;21.95;;;3.05;;
64842;SDS011;51310;52.198;5.422;2024-01-27T03:31:35;11.15;;;2.45;;
64842;SDS011;51310;52.198;5.422;2024-01-27T03:34:01;17.42;;;2.95;;
64842;SDS011;51310;52.198;5.422;2024-01-27T03:36:28;13.32;;;2.22;;
64842;SDS011;51310;52.198;5.422;2024-01-27T03:38:55;14.88;;;2.47;;
64842;SDS011;51310;52.198;5.422;2024-01-27T03:41:24;13.15;;;2.40;;
64842;SDS011;51310;52.198;5.422;2024-01-27T03:43:50;13.55;;;2.28;;
64842;SDS011;51310;52.198;5.422;2024-01-27T03:46:16;14.65;;;3.08;;
64842;SDS011;51310;52.198;5.422;2024-01-27T03:48:42;6.15;;;2.33;;
64842;SDS011;51310;52.198;5.422;2024-01-27T03:51:08;9.68;;;2.47;;
64842;SDS011;51310;52.198;5.422;2024-01-27T03:53:34;18.88;;;3.70;;
64842;SDS011;51310;52.198;5.422;2024-01-27T03:56:01;8.48;;;1.80;;
64842;SDS011;51310;52.198;5.422;2024-01-27T03:58:29;12.02;;;2.47;;
64842;SDS011;51310;52.198;5.422;2024-01-27T04:00:58;8.63;;;3.25;;
64842;SDS011;51310;52.198;5.422;2024-01-27T04:03:24;8.48;;;2.47;;
64842;SDS011;51310;52.198;5.422;2024-01-27T04:05:50;6.13;;;1.92;;
64842;SDS011;51310;52.198;5.422;2024-01-27T04:08:16;16.92;;;3.45;;
64842;SDS011;51310;52.198;5.422;2024-01-27T04:10:42;11.25;;;2.97;;
64842;SDS011;51310;52.198;5.422;2024-01-27T04:13:08;6.55;;;2.42;;
64842;SDS011;51310;52.198;5.422;2024-01-27T04:15:34;14.32;;;3.90;;
64842;SDS011;51310;52.198;5.422;2024-01-27T04:18:06;17.40;;;4.22;;
64842;SDS011;51310;52.198;5.422;2024-01-27T04:20:34;20.30;;;3.70;;
64842;SDS011;51310;52.198;5.422;2024-01-27T04:23:00;15.82;;;2.88;;
64842;SDS011;51310;52.198;5.422;2024-01-27T04:25:27;13.63;;;3.00;;
64842;SDS011;51310;52.198;5.422;2024-01-27T04:27:53;16.90;;;3.13;;
64842;SDS011;51310;52.198;5.422;2024-01-27T04:30:19;13.55;;;3.45;;
64842;SDS011;51310;52.198;5.422;2024-01-27T04:32:45;10.25;;;2.88;;
64842;SDS011;51310;52.198;5.422;2024-01-27T04:35:14;11.95;;;3.72;;
64842;SDS011;51310;52.198;5.422;2024-01-27T04:37:40;9.50;;;3.65;;
64842;SDS011;51310;52.198;5.422;2024-01-27T04:40:06;26.13;;;4.10;;
64842;SDS011;51310;52.198;5.422;2024-01-27T04:42:33;10.93;;;3.78;;
64842;SDS011;51310;52.198;5.422;2024-01-27T04:45:00;14.40;;;3.67;;
64842;SDS011;51310;52.198;5.422;2024-01-27T04:47:26;22.25;;;5.15;;
64842;SDS011;51310;52.198;5.422;2024-01-27T04:49:52;14.93;;;4.38;;
64842;SDS011;51310;52.198;5.422;2024-01-27T04:52:19;27.05;;;5.35;;
64842;SDS011;51310;52.198;5.422;2024-01-27T04:54:45;10.63;;;3.78;;
64842;SDS011;51310;52.198;5.422;2024-01-27T04:57:11;26.00;;;4.18;;
64842;SDS011;51310;52.198;5.422;2024-01-27T04:59:37;17.85;;;4.72;;
64842;SDS011;51310;52.198;5.422;2024-01-27T05:02:03;19.75;;;5.57;;
64842;SDS011;51310;52.198;5.422;2024-01-27T05:04:29;15.90;;;4.40;;
64842;SDS011;51310;52.198;5.422;2024-01-27T05:06:55;27.15;;;5.22;;
64842;SDS011;51310;52.198;5.422;2024-01-27T05:09:21;15.48;;;5.32;;
64842;SDS011;51310;52.198;5.422;2024-01-27T05:11:48;25.42;;;6.25;;
64842;SDS011;51310;52.198;5.422;2024-01-27T05:14:16;12.00;;;5.13;;
64842;SDS011;51310;52.198;5.422;2024-01-27T05:16:42;27.05;;;6.38;;
64842;SDS011;51310;52.198;5.422;2024-01-27T05:19:08;19.48;;;6.07;;
64842;SDS011;51310;52.198;5.422;2024-01-27T05:21:35;21.83;;;6.55;;
64842;SDS011;51310;52.198;5.422;2024-01-27T05:24:01;17.17;;;7.20;;
64842;SDS011;51310;52.198;5.422;2024-01-27T05:26:27;18.63;;;6.40;;
64842;SDS011;51310;52.198;5.422;2024-01-27T05:28:53;15.15;;;6.47;;
64842;SDS011;51310;52.198;5.422;2024-01-27T05:31:19;18.13;;;8.23;;
64842;SDS011;51310;52.198;5.422;2024-01-27T05:33:45;19.70;;;7.07;;
64842;SDS011;51310;52.198;5.422;2024-01-27T05:36:11;23.63;;;6.57;;
64842;SDS011;51310;52.198;5.422;2024-01-27T05:38:37;22.00;;;7.07;;
64842;SDS011;51310;52.198;5.422;2024-01-27T05:41:03;21.42;;;7.13;;
64842;SDS011;51310;52.198;5.422;2024-01-27T05:43:29;19.38;;;7.28;;
64842;SDS011;51310;52.198;5.422;2024-01-27T05:45:55;21.30;;;8.05;;
64842;SDS011;51310;52.198;5.422;2024-01-27T05:48:21;22.85;;;7.90;;
64842;SDS011;51310;52.198;5.422;2024-01-27T05:50:57;16.83;;;7.20;;
64842;SDS011;51310;52.198;5.422;2024-01-27T05:53:25;18.63;;;7.07;;
64842;SDS011;51310;52.198;5.422;2024-01-27T05:55:52;17.23;;;7.35;;
64842;SDS011;51310;52.198;5.422;2024-01-27T06:00:50;24.45;;;6.78;;
64842;SDS011;51310;52.198;5.422;2024-01-27T06:03:16;35.53;;;7.90;;
64842;SDS011;51310;52.198;5.422;2024-01-27T06:05:42;21.60;;;7.88;;
64842;SDS011;51310;52.198;5.422;2024-01-27T06:08:08;21.95;;;8.48;;
64842;SDS011;51310;52.198;5.422;2024-01-27T06:10:35;15.80;;;7.22;;
64842;SDS011;51310;52.198;5.422;2024-01-27T06:13:03;24.42;;;8.25;;
64842;SDS011;51310;52.198;5.422;2024-01-27T06:15:30;25.35;;;7.47;;
64842;SDS011;51310;52.198;5.422;2024-01-27T06:17:56;16.60;;;8.80;;
64842;SDS011;51310;52.198;5.422;2024-01-27T06:20:23;23.98;;;10.55;;
64842;SDS011;51310;52.198;5.422;2024-01-27T06:22:49;21.65;;;7.68;;
64842;SDS011;51310;52.198;5.422;2024-01-27T06:25:15;25.75;;;8.25;;
64842;SDS011;51310;52.198;5.422;2024-01-27T06:27:42;29.45;;;8.55;;
64842;SDS011;51310;52.198;5.422;2024-01-27T06:30:08;35.00;;;8.77;;
64842;SDS011;51310;52.198;5.422;2024-01-27T06:32:36;17.67;;;8.57;;
64842;SDS011;51310;52.198;5.422;2024-01-27T06:35:02;18.83;;;8.43;;
64842;SDS011;51310;52.198;5.422;2024-01-27T06:37:29;22.50;;;7.85;;
64842;SDS011;51310;52.198;5.422;2024-01-27T06:39:55;24.83;;;8.57;;
64842;SDS011;51310;52.198;5.422;2024-01-27T06:42:21;28.50;;;9.38;;
64842;SDS011;51310;52.198;5.422;2024-01-27T06:44:47;18.90;;;8.15;;
64842;SDS011;51310;52.198;5.422;2024-01-27T06:47:13;25.13;;;8.85;;
64842;SDS011;51310;52.198;5.422;2024-01-27T06:49:39;29.58;;;9.55;;
64842;SDS011;51310;52.198;5.422;2024-01-27T06:52:05;19.20;;;9.52;;
64842;SDS011;51310;52.198;5.422;2024-01-27T06:54:31;16.02;;;9.85;;
64842;SDS011;51310;52.198;5.422;2024-01-27T06:56:59;24.35;;;9.77;;
64842;SDS011;51310;52.198;5.422;2024-01-27T06:59:25;37.00;;;9.05;;
64842;SDS011;51310;52.198;5.422;2024-01-27T07:01:51;21.63;;;9.88;;
64842;SDS011;51310;52.198;5.422;2024-01-27T07:04:17;28.25;;;8.75;;
64842;SDS011;51310;52.198;5.422;2024-01-27T07:06:43;22.58;;;9.80;;
64842;SDS011;51310;52.198;5.422;2024-01-27T07:09:09;17.77;;;9.82;;
64842;SDS011;51310;52.198;5.422;2024-01-27T07:11:36;29.40;;;11.07;;
64842;SDS011;51310;52.198;5.422;2024-01-27T07:14:03;20.58;;;9.32;;
64842;SDS011;51310;52.198;5.422;2024-01-27T07:16:29;21.02;;;8.70;;
64842;SDS011;51310;52.198;5.422;2024-01-27T07:18:57;18.88;;;8.90;;
64842;SDS011;51310;52.198;5.422;2024-01-27T07:21:23;19.23;;;8.77;;
64842;SDS011;51310;52.198;5.422;2024-01-27T07:23:49;28.50;;;10.30;;
64842;SDS011;51310;52.198;5.422;2024-01-27T07:26:15;19.50;;;10.52;;
64842;SDS011;51310;52.198;5.422;2024-01-27T07:28:41;25.38;;;10.18;;
64842;SDS011;51310;52.198;5.422;2024-01-27T07:31:07;26.75;;;9.77;;
64842;SDS011;51310;52.198;5.422;2024-01-27T07:33:33;30.02;;;10.40;;
64842;SDS011;51310;52.198;5.422;2024-01-27T07:35:59;25.88;;;11.00;;
64842;SDS011;51310;52.198;5.422;2024-01-27T07:38:26;20.90;;;9.60;;
64842;SDS011;51310;52.198;5.422;2024-01-27T07:40:52;27.13;;;10.38;;
64842;SDS011;51310;52.198;5.422;2024-01-27T07:43:18;27.90;;;10.88;;
64842;SDS011;51310;52.198;5.422;2024-01-27T07:45:44;29.40;;;10.88;;
64842;SDS011;51310;52.198;5.422;2024-01-27T07:48:10;22.17;;;10.85;;
64842;SDS011;51310;52.198;5.422;2024-01-27T07:50:36;29.13;;;10.25;;
64842;SDS011;51310;52.198;5.422;2024-01-27T07:53:01;23.67;;;10.55;;
64842;SDS011;51310;52.198;5.422;2024-01-27T07:55:27;25.98;;;9.25;;
64842;SDS011;51310;52.198;5.422;2024-01-27T07:57:53;28.25;;;10.00;;
64842;SDS011;51310;52.198;5.422;2024-01-27T08:00:19;39.97;;;10.95;;
64842;SDS011;51310;52.198;5.422;2024-01-27T08:02:45;32.22;;;11.70;;
64842;SDS011;51310;52.198;5.422;2024-01-27T08:05:12;40.25;;;10.85;;
64842;SDS011;51310;52.198;5.422;2024-01-27T08:07:38;25.65;;;11.32;;
64842;SDS011;51310;52.198;5.422;2024-01-27T08:10:04;28.42;;;9.48;;
64842;SDS011;51310;52.198;5.422;2024-01-27T08:12:30;28.67;;;11.57;;
64842;SDS011;51310;52.198;5.422;2024-01-27T08:14:56;25.00;;;10.93;;
64842;SDS011;51310;52.198;5.422;2024-01-27T08:17:22;23.25;;;11.02;;
64842;SDS011;51310;52.198;5.422;2024-01-27T08:19:48;22.92;;;11.98;;
64842;SDS011;51310;52.198;5.422;2024-01-27T08:22:13;33.80;;;11.23;;
64842;SDS011;51310;52.198;5.422;2024-01-27T08:24:39;21.90;;;10.57;;
64842;SDS011;51310;52.198;5.422;2024-01-27T08:27:05;26.42;;;11.15;;
64842;SDS011;51310;52.198;5.422;2024-01-27T08:29:31;34.08;;;9.85;;
64842;SDS011;51310;52.198;5.422;2024-01-27T08:31:58;23.75;;;9.63;;
64842;SDS011;51310;52.198;5.422;2024-01-27T08:34:24;32.05;;;12.27;;
64842;SDS011;51310;52.198;5.422;2024-01-27T08:36:50;26.33;;;9.85;;
64842;SDS011;51310;52.198;5.422;2024-01-27T08:39:16;35.28;;;10.48;;
64842;SDS011;51310;52.198;5.422;2024-01-27T08:41:42;36.70;;;10.88;;
64842;SDS011;51310;52.198;5.422;2024-01-27T08:44:08;24.65;;;11.85;;
64842;SDS011;51310;52.198;5.422;2024-01-27T08:46:34;22.52;;;9.65;;
64842;SDS011;51310;52.198;5.422;2024-01-27T08:49:00;16.92;;;10.05;;
64842;SDS011;51310;52.198;5.422;2024-01-27T08:51:26;22.70;;;9.93;;
64842;SDS011;51310;52.198;5.422;2024-01-27T08:53:52;27.98;;;10.25;;
64842;SDS011;51310;52.198;5.422;2024-01-27T08:56:18;26.00;;;10.52;;
64842;SDS011;51310;52.198;5.422;2024-01-27T08:58:44;33.35;;;10.38;;
64842;SDS011;51310;52.198;5.422;2024-01-27T09:01:12;17.80;;;9.93;;
64842;SDS011;51310;52.198;5.422;2024-01-27T09:03:40;18.45;;;10.30;;
64842;SDS011;51310;52.198;5.422;2024-01-27T09:06:07;19.45;;;9.65;;
64842;SDS011;51310;52.198;5.422;2024-01-27T09:08:33;24.35;;;9.95;;
64842;SDS011;51310;52.198;5.422;2024-01-27T09:11:05;18.80;;;9.88;;
64842;SDS011;51310;52.198;5.422;2024-01-27T09:13:34;20.33;;;10.65;;
64842;SDS011;51310;52.198;5.422;2024-01-27T09:16:00;30.02;;;9.98;;
64842;SDS011;51310;52.198;5.422;2024-01-27T09:18:26;30.67;;;9.90;;
64842;SDS011;51310;52.198;5.422;2024-01-27T09:20:53;22.05;;;10.00;;
64842;SDS011;51310;52.198;5.422;2024-01-27T09:23:19;21.45;;;9.38;;
64842;SDS011;51310;52.198;5.422;2024-01-27T09:25:44;26.50;;;9.50;;
64842;SDS011;51310;52.198;5.422;2024-01-27T09:28:10;26.00;;;9.60;;
64842;SDS011;51310;52.198;5.422;2024-01-27T09:30:37;21.52;;;8.85;;
64842;SDS011;51310;52.198;5.422;2024-01-27T09:33:03;24.88;;;10.43;;
64842;SDS011;51310;52.198;5.422;2024-01-27T09:35:29;23.35;;;8.45;;
64842;SDS011;51310;52.198;5.422;2024-01-27T09:37:55;25.05;;;9.93;;
64842;SDS011;51310;52.198;5.422;2024-01-27T09:40:21;20.83;;;8.20;;
64842;SDS011;51310;52.198;5.422;2024-01-27T09:42:50;32.63;;;9.90;;
64842;SDS011;51310;52.198;5.422;2024-01-27T09:45:23;23.85;;;9.98;;
64842;SDS011;51310;52.198;5.422;2024-01-27T09:47:49;22.85;;;9.23;;
64842;SDS011;51310;52.198;5.422;2024-01-27T09:50:17;22.38;;;9.65;;
64842;SDS011;51310;52.198;5.422;2024-01-27T09:52:43;20.50;;;9.35;;
64842;SDS011;51310;52.198;5.422;2024-01-27T09:55:09;16.13;;;8.38;;
64842;SDS011;51310;52.198;5.422;2024-01-27T09:57:36;16.17;;;8.80;;
64842;SDS011;51310;52.198;5.422;2024-01-27T10:00:09;20.05;;;8.63;;
64842;SDS011;51310;52.198;5.422;2024-01-27T10:02:38;24.73;;;9.10;;
64842;SDS011;51310;52.198;5.422;2024-01-27T10:05:07;27.15;;;8.55;;
64842;SDS011;51310;52.198;5.422;2024-01-27T10:07:35;22.17;;;8.80;;
64842;SDS011;51310;52.198;5.422;2024-01-27T10:10:01;23.13;;;8.45;;
64842;SDS011;51310;52.198;5.422;2024-01-27T10:12:28;31.85;;;10.05;;
64842;SDS011;51310;52.198;5.422;2024-01-27T10:14:56;20.88;;;9.20;;
64842;SDS011;51310;52.198;5.422;2024-01-27T10:17:22;27.98;;;9.38;;
64842;SDS011;51310;52.198;5.422;2024-01-27T10:20:03;21.42;;;8.90;;
64842;SDS011;51310;52.198;5.422;2024-01-27T10:22:42;28.20;;;9.02;;
64842;SDS011;51310;52.198;5.422;2024-01-27T10:25:10;24.17;;;8.05;;
64842;SDS011;51310;52.198;5.422;2024-01-27T10:27:37;29.75;;;9.00;;
64842;SDS011;51310;52.198;5.422;2024-01-27T10:30:04;25.23;;;8.63;;
64842;SDS011;51310;52.198;5.422;2024-01-27T10:32:32;19.80;;;7.38;;
64842;SDS011;51310;52.198;5.422;2024-01-27T10:35:05;27.42;;;8.32;;
64842;SDS011;51310;52.198;5.422;2024-01-27T10:37:36;22.98;;;8.98;;
64842;SDS011;51310;52.198;5.422;2024-01-27T10:40:03;23.17;;;8.68;;
64842;SDS011;51310;52.198;5.422;2024-01-27T10:42:34;31.55;;;8.60;;
64842;SDS011;51310;52.198;5.422;2024-01-27T10:45:02;16.38;;;6.70;;
64842;SDS011;51310;52.198;5.422;2024-01-27T10:47:30;24.75;;;7.43;;
64842;SDS011;51310;52.198;5.422;2024-01-27T10:49:59;25.10;;;7.78;;
64842;SDS011;51310;52.198;5.422;2024-01-27T10:52:30;19.45;;;6.63;;
64842;SDS011;51310;52.198;5.422;2024-01-27T10:55:02;17.30;;;7.57;;
64842;SDS011;51310;52.198;5.422;2024-01-27T10:57:35;15.98;;;7.68;;
64842;SDS011;51310;52.198;5.422;2024-01-27T11:00:03;22.45;;;8.20;;
64842;SDS011;51310;52.198;5.422;2024-01-27T11:02:35;24.10;;;6.68;;
64842;SDS011;51310;52.198;5.422;2024-01-27T11:05:04;27.92;;;8.95;;
64842;SDS011;51310;52.198;5.422;2024-01-27T11:07:33;29.40;;;7.35;;
64842;SDS011;51310;52.198;5.422;2024-01-27T11:10:00;15.40;;;5.53;;
64842;SDS011;51310;52.198;5.422;2024-01-27T11:12:26;27.45;;;7.82;;
64842;SDS011;51310;52.198;5.422;2024-01-27T11:14:53;23.58;;;7.13;;
64842;SDS011;51310;52.198;5.422;2024-01-27T11:17:23;18.75;;;5.85;;
64842;SDS011;51310;52.198;5.422;2024-01-27T11:19:49;26.75;;;7.30;;
64842;SDS011;51310;52.198;5.422;2024-01-27T11:22:27;23.25;;;7.15;;
64842;SDS011;51310;52.198;5.422;2024-01-27T11:27:43;13.80;;;6.10;;
64842;SDS011;51310;52.198;5.422;2024-01-27T11:30:24;21.10;;;5.47;;
64842;SDS011;51310;52.198;5.422;2024-01-27T11:32:57;19.80;;;6.20;;
64842;SDS011;51310;52.198;5.422;2024-01-27T11:35:25;19.60;;;5.40;;
64842;SDS011;51310;52.198;5.422;2024-01-27T11:37:51;17.23;;;4.90;;
64842;SDS011;51310;52.198;5.422;2024-01-27T11:40:19;21.35;;;6.22;;
64842;SDS011;51310;52.198;5.422;2024-01-27T11:45:27;31.23;;;5.10;;
64842;SDS011;51310;52.198;5.422;2024-01-27T11:47:55;19.23;;;4.82;;
64842;SDS011;51310;52.198;5.422;2024-01-27T11:50:22;14.60;;;5.97;;
64842;SDS011;51310;52.198;5.422;2024-01-27T11:52:48;17.27;;;4.45;;
64842;SDS011;51310;52.198;5.422;2024-01-27T11:55:14;10.23;;;4.85;;
64842;SDS011;51310;52.198;5.422;2024-01-27T11:57:41;13.02;;;4.90;;
64842;SDS011;51310;52.198;5.422;2024-01-27T12:00:07;16.00;;;4.13;;
64842;SDS011;51310;52.198;5.422;2024-01-27T12:02:37;19.75;;;5.45;;
64842;SDS011;51310;52.198;5.422;2024-01-27T12:05:08;21.10;;;5.60;;
64842;SDS011;51310;52.198;5.422;2024-01-27T12:07:34;15.20;;;5.38;;
64842;SDS011;51310;52.198;5.422;2024-01-27T12:10:00;22.15;;;5.40;;
64842;SDS011;51310;52.198;5.422;2024-01-27T12:12:26;19.77;;;5.38;;
64842;SDS011;51310;52.198;5.422;2024-01-27T12:14:52;18.48;;;5.18;;
64842;SDS011;51310;52.198;5.422;2024-01-27T12:17:18;22.70;;;5.25;;
64842;SDS011;51310;52.198;5.422;2024-01-27T12:19:49;18.98;;;5.32;;
64842;SDS011;51310;52.198;5.422;2024-01-27T12:22:23;20.17;;;4.95;;
64842;SDS011;51310;52.198;5.422;2024-01-27T12:24:56;18.33;;;4.82;;
64842;SDS011;51310;52.198;5.422;2024-01-27T12:27:38;17.20;;;4.25;;
64842;SDS011;51310;52.198;5.422;2024-01-27T12:30:05;15.80;;;4.10;;
64842;SDS011;51310;52.198;5.422;2024-01-27T12:32:32;15.00;;;4.30;;
64842;SDS011;51310;52.198;5.422;2024-01-27T12:34:58;12.55;;;4.00;;
64842;SDS011;51310;52.198;5.422;2024-01-27T12:37:33;16.35;;;4.03;;
64842;SDS011;51310;52.198;5.422;2024-01-27T12:40:00;14.02;;;3.97;;
64842;SDS011;51310;52.198;5.422;2024-01-27T12:42:26;12.68;;;3.53;;
64842;SDS011;51310;52.198;5.422;2024-01-27T12:44:52;18.83;;;4.90;;
64842;SDS011;51310;52.198;5.422;2024-01-27T12:47:18;8.55;;;3.10;;
64842;SDS011;51310;52.198;5.422;2024-01-27T12:49:45;12.48;;;3.97;;
64842;SDS011;51310;52.198;5.422;2024-01-27T12:52:11;11.38;;;3.58;;
64842;SDS011;51310;52.198;5.422;2024-01-27T12:54:37;13.07;;;3.75;;
64842;SDS011;51310;52.198;5.422;2024-01-27T12:57:03;15.95;;;3.95;;
64842;SDS011;51310;52.198;5.422;2024-01-27T12:59:31;8.75;;;3.88;;
64842;SDS011;51310;52.198;5.422;2024-01-27T13:01:57;7.97;;;2.88;;
64842;SDS011;51310;52.198;5.422;2024-01-27T13:04:22;13.63;;;3.30;;
64842;SDS011;51310;52.198;5.422;2024-01-27T13:06:48;18.33;;;3.20;;
64842;SDS011;51310;52.198;5.422;2024-01-27T13:09:16;14.48;;;3.83;;
64842;SDS011;51310;52.198;5.422;2024-01-27T13:11:42;10.48;;;4.53;;
64842;SDS011;51310;52.198;5.422;2024-01-27T13:14:08;11.77;;;2.90;;
64842;SDS011;51310;52.198;5.422;2024-01-27T13:16:34;12.65;;;3.08;;
64842;SDS011;51310;52.198;5.422;2024-01-27T13:19:00;15.32;;;3.63;;
64842;SDS011;51310;52.198;5.422;2024-01-27T13:21:26;11.75;;;3.42;;
64842;SDS011;51310;52.198;5.422;2024-01-27T13:23:52;18.88;;;3.42;;
64842;SDS011;51310;52.198;5.422;2024-01-27T13:26:18;9.52;;;3.03;;
64842;SDS011;51310;52.198;5.422;2024-01-27T13:28:45;9.50;;;3.35;;
64842;SDS011;51310;52.198;5.422;2024-01-27T13:31:13;14.18;;;3.20;;
64842;SDS011;51310;52.198;5.422;2024-01-27T13:33:39;6.72;;;2.97;;
64842;SDS011;51310;52.198;5.422;2024-01-27T13:36:07;16.08;;;3.00;;
64842;SDS011;51310;52.198;5.422;2024-01-27T13:38:33;16.92;;;3.25;;
64842;SDS011;51310;52.198;5.422;2024-01-27T13:41:00;23.38;;;4.30;;
64842;SDS011;51310;52.198;5.422;2024-01-27T13:43:26;13.98;;;3.53;;
64842;SDS011;51310;52.198;5.422;2024-01-27T13:45:52;13.43;;;3.40;;
64842;SDS011;51310;52.198;5.422;2024-01-27T13:48:19;6.68;;;2.90;;
64842;SDS011;51310;52.198;5.422;2024-01-27T13:50:46;13.00;;;3.72;;
64842;SDS011;51310;52.198;5.422;2024-01-27T13:53:12;16.88;;;3.53;;
64842;SDS011;51310;52.198;5.422;2024-01-27T13:55:38;20.88;;;3.17;;
64842;SDS011;51310;52.198;5.422;2024-01-27T13:58:05;12.05;;;2.97;;
64842;SDS011;51310;52.198;5.422;2024-01-27T14:00:31;8.82;;;3.08;;
64842;SDS011;51310;52.198;5.422;2024-01-27T14:02:59;12.25;;;3.08;;
64842;SDS011;51310;52.198;5.422;2024-01-27T14:05:25;11.50;;;2.90;;
64842;SDS011;51310;52.198;5.422;2024-01-27T14:07:51;17.23;;;3.63;;
64842;SDS011;51310;52.198;5.422;2024-01-27T14:10:17;8.65;;;2.80;;
64842;SDS011;51310;52.198;5.422;2024-01-27T14:12:43;15.15;;;3.53;;
64842;SDS011;51310;52.198;5.422;2024-01-27T14:15:09;7.50;;;2.95;;
64842;SDS011;51310;52.198;5.422;2024-01-27T14:17:36;11.18;;;3.50;;
64842;SDS011;51310;52.198;5.422;2024-01-27T14:20:02;18.33;;;3.95;;
64842;SDS011;51310;52.198;5.422;2024-01-27T14:22:29;18.13;;;3.70;;
64842;SDS011;51310;52.198;5.422;2024-01-27T14:24:56;11.57;;;3.85;;
64842;SDS011;51310;52.198;5.422;2024-01-27T14:27:22;20.58;;;3.33;;
64842;SDS011;51310;52.198;5.422;2024-01-27T14:29:57;13.88;;;4.00;;
64842;SDS011;51310;52.198;5.422;2024-01-27T14:32:23;10.57;;;3.58;;
64842;SDS011;51310;52.198;5.422;2024-01-27T14:34:49;9.27;;;3.03;;
64842;SDS011;51310;52.198;5.422;2024-01-27T14:37:15;15.40;;;4.80;;
64842;SDS011;51310;52.198;5.422;2024-01-27T14:39:47;19.95;;;3.67;;